createdAt,value
2023-05-11T06:03:41.020Z,11.3
2023-05-11T06:09:15.477Z,11.1
2023-05-11T06:14:51.425Z,10.9
2023-05-11T06:20:26.498Z,10.9
2023-05-11T06:26:02.845Z,10.9
2023-05-11T06:31:38.557Z,11
2023-05-11T06:37:15.641Z,11.2
2023-05-11T06:42:51.557Z,11.5
2023-05-11T06:48:28.844Z,11.8
2023-05-11T06:54:05.762Z,12.5
2023-05-11T06:59:41.017Z,12.5
2023-05-11T07:05:16.433Z,12.4
2023-05-11T07:10:52.395Z,12.5
2023-05-11T07:16:30.029Z,12.6
2023-05-11T07:22:06.191Z,13
2023-05-11T07:27:43.377Z,13.2
2023-05-11T07:33:20.193Z,13.6
2023-05-11T07:38:55.539Z,13.8
2023-05-11T07:44:31.663Z,14.1
2023-05-11T07:50:07.606Z,14.5
2023-05-11T07:55:43.836Z,14.7
2023-05-11T08:01:41.383Z,14.8
2023-05-11T08:07:16.456Z,14.6
2023-05-11T08:12:53.465Z,14.5
2023-05-11T08:18:29.172Z,15.1
2023-05-11T08:24:07.671Z,15.4
2023-05-11T08:29:43.127Z,15.1
2023-05-11T08:35:18.183Z,15.3
2023-05-11T08:40:57.110Z,14.9
2023-05-11T08:46:32.119Z,15
2023-05-11T08:52:31.106Z,15.6
2023-05-11T08:58:08.229Z,16.3
2023-05-11T09:04:09.234Z,17.3
2023-05-11T09:09:44.789Z,16.7
2023-05-11T09:15:23.401Z,15.9
2023-05-11T09:20:58.827Z,16.3
2023-05-11T09:26:36.642Z,16.9
2023-05-11T09:32:17.746Z,17.6
2023-05-11T09:38:10.378Z,17.3
2023-05-11T09:43:46.663Z,16.5
2023-05-11T09:49:23.045Z,15.2
2023-05-11T09:54:58.761Z,14.8
2023-05-11T10:00:56.160Z,16.4
2023-05-11T10:06:29.311Z,17
2023-05-11T10:12:06.014Z,16.8
2023-05-11T10:17:41.460Z,16.9
2023-05-11T10:23:17.209Z,17.3
2023-05-11T10:28:52.730Z,17.6
2023-05-11T10:34:29.462Z,17.6
2023-05-11T10:40:06.726Z,17
2023-05-11T10:45:42.069Z,16.7
2023-05-11T10:51:24.863Z,19.5
2023-05-11T10:57:09.043Z,19
2023-05-11T11:03:06.976Z,18.6
2023-05-11T11:08:41.224Z,19.9
2023-05-11T11:14:17.217Z,18.4
2023-05-11T11:19:53.076Z,19.2
2023-05-11T11:25:28.632Z,21.3
2023-05-11T11:31:05.242Z,17.8
2023-05-11T11:36:42.391Z,16.6
2023-05-11T11:42:20.626Z,14.2
2023-05-11T11:47:57.713Z,12.5
2023-05-11T11:53:36.790Z,12.5
2023-05-11T11:59:15.351Z,13.1
2023-05-11T12:04:51.132Z,13.9
2023-05-11T12:10:33.467Z,14.3
2023-05-11T12:16:09.822Z,15.7
2023-05-11T12:21:46.550Z,16.5
2023-05-11T12:27:22.142Z,16.4
2023-05-11T12:33:04.614Z,16.3
2023-05-11T12:38:42.060Z,15.8
2023-05-11T12:44:17.752Z,17
2023-05-11T12:49:53.735Z,17.3
2023-05-11T12:55:30.130Z,18.9
2023-05-11T13:01:28.282Z,22.6
2023-05-11T13:07:02.326Z,33
2023-05-11T13:12:38.134Z,21.8
2023-05-11T13:18:16.628Z,20.1
2023-05-11T13:23:52.767Z,19.9
2023-05-11T13:29:29.412Z,18.4
2023-05-11T13:35:05.159Z,17.6
2023-05-11T13:40:40.195Z,16.1
2023-05-11T13:46:16.391Z,17.3
2023-05-11T13:51:54.987Z,18.6
2023-05-11T13:57:34.875Z,18.4
2023-05-11T14:03:11.944Z,22.1
2023-05-11T14:08:55.330Z,21.5
2023-05-11T14:14:31.113Z,20.6
2023-05-11T14:20:06.594Z,20.3
2023-05-11T14:25:42.073Z,18
2023-05-11T14:31:17.690Z,27.6
2023-05-11T14:36:54.954Z,24.2
2023-05-11T14:42:29.610Z,17.7
2023-05-11T14:48:04.779Z,22.6
2023-05-11T14:53:41.813Z,30.5
2023-05-11T14:59:18.428Z,23.8
2023-05-11T15:04:58.611Z,24.4
2023-05-11T15:10:34.141Z,19.1
2023-05-11T15:16:09.108Z,20.7
2023-05-11T15:21:46.763Z,34.7
2023-05-11T15:27:23.618Z,31.6
2023-05-11T15:32:59.543Z,32.6
2023-05-11T15:38:36.362Z,31.2
2023-05-11T15:44:12.039Z,25.9
2023-05-11T15:49:47.078Z,27.3
2023-05-11T15:55:23.204Z,21.7
2023-05-11T16:01:00.039Z,22.6
2023-05-11T16:06:35.981Z,21.1
2023-05-11T16:12:11.476Z,20.5
2023-05-11T16:17:48.826Z,24
2023-05-11T16:23:25.265Z,20.7
2023-05-11T16:29:03.868Z,18.4
2023-05-11T16:34:39.664Z,17.3
2023-05-11T16:40:15.221Z,19.9
2023-05-11T16:45:55.505Z,29.4
2023-05-11T16:51:31.782Z,29.3
2023-05-11T16:57:07.358Z,31.8
2023-05-11T17:02:42.815Z,21.3
2023-05-11T17:08:20.547Z,20.2
2023-05-11T17:13:55.594Z,20.2
2023-05-11T17:19:30.110Z,18.2
2023-05-11T17:25:05.416Z,17.2
2023-05-11T17:36:26.964Z,18.5
2023-05-11T17:42:02.721Z,16.4
2023-05-11T17:47:38.250Z,16.4
2023-05-11T17:53:15.677Z,15.7
2023-05-11T17:58:50.969Z,15.2
2023-05-11T18:04:26.741Z,14.8
2023-05-11T18:10:02.148Z,14.8
2023-05-11T18:15:37.943Z,14.6
2023-05-11T18:21:14.070Z,14.4
2023-05-11T18:26:49.998Z,14
2023-05-11T18:32:24.886Z,13.7
2023-05-11T18:38:00.673Z,13.6
2023-05-11T18:43:43.134Z,13.8
2023-05-11T18:49:28.852Z,13.5
2023-05-11T18:55:05.266Z,13.4
2023-05-11T19:01:04.902Z,13.4
2023-05-11T19:06:39.993Z,13.2
2023-05-11T19:12:46.185Z,13.1
2023-05-11T19:18:35.720Z,12.8
2023-05-11T19:24:11.657Z,12.5
2023-05-11T19:29:48.472Z,12.5
2023-05-11T19:35:25.027Z,12.5
2023-05-11T19:41:01.057Z,12.4
2023-05-11T19:46:44.480Z,12.3
2023-05-11T19:52:22.144Z,12.5
2023-05-11T19:58:04.850Z,12.3
2023-05-11T20:04:03.853Z,12.3
2023-05-11T20:09:38.689Z,12.1
2023-05-11T20:15:14.403Z,11.9
2023-05-11T20:20:58.572Z,11.8
2023-05-11T20:26:35.446Z,11.6
2023-05-11T20:32:23.902Z,11.6
2023-05-11T20:38:07.924Z,11.4
2023-05-11T20:43:43.214Z,11.4
2023-05-11T20:49:27.718Z,11.5
